Skip to main content

Mogadouro

ID 1210637 · 41.3333, -6.7333 map

Latest reading · 2026-05-09 19:00 (Europe/Lisbon)

Temperature
11.1 °C
Humidity
82 %
Pressure
Precipitation
0.5 mm
Radiation
176 W/m²
Wind speed
32.0 km/h
Wind direction
W · West

24-hour history

Time (Europe/Lisbon) Temp Humidity Pressure Rain Wind Dir
2026-05-09 19:00 11.1 °C 82 % 0.5 mm 32.0 km/h W
2026-05-09 18:00 12.7 °C 78 % 0.0 mm 19.8 km/h S
2026-05-09 17:00 11.7 °C 83 % 0.0 mm 21.2 km/h S
2026-05-09 16:00 9.4 °C 98 % 4.4 mm 7.2 km/h S
2026-05-09 15:00 11.3 °C 87 % 1.3 mm 18.4 km/h S
2026-05-09 14:00 11.5 °C 84 % 0.0 mm 26.3 km/h SE
2026-05-09 13:00 10.8 °C 93 % 0.5 mm 25.6 km/h SE
2026-05-09 12:00 10.2 °C 96 % 1.9 mm 20.9 km/h SE
2026-05-09 11:00 11.5 °C 79 % 1.8 mm 32.0 km/h SE
2026-05-09 10:00 12.1 °C 71 % 0.0 mm 23.4 km/h E
2026-05-09 09:00 11.6 °C 69 % 0.0 mm 18.4 km/h SE
2026-05-09 08:00 10.9 °C 69 % 0.0 mm 22.7 km/h SE
2026-05-09 07:00 10.4 °C 75 % 0.0 mm 23.0 km/h SE
2026-05-09 06:00 10.7 °C 73 % 0.0 mm 20.2 km/h SE
2026-05-09 05:00 10.9 °C 73 % 0.0 mm 23.4 km/h SE
2026-05-09 04:00 11.3 °C 71 % 0.0 mm 19.4 km/h SE
2026-05-09 03:00 11.7 °C 70 % 0.0 mm 16.6 km/h SE
2026-05-09 02:00 10.3 °C 84 % 0.1 mm 24.8 km/h SE
2026-05-09 01:00 10.3 °C 82 % 0.0 mm 29.9 km/h E
2026-05-09 00:00 10.2 °C 82 % 0.0 mm 30.2 km/h E
2026-05-08 23:00 10.7 °C 81 % 0.0 mm 18.0 km/h E
2026-05-08 22:00 11.4 °C 77 % 0.0 mm 16.9 km/h E
2026-05-08 21:00 12.1 °C 73 % 0.0 mm 12.2 km/h NE
2026-05-08 20:00 12.9 °C 74 % 0.0 mm 2.9 km/h S